createdAt,value
2018-04-24T00:00:29.447Z,18.1
2018-04-24T00:01:20.062Z,18.2
2018-04-24T00:02:10.153Z,18.2
2018-04-24T00:02:59.398Z,18.1
2018-04-24T00:03:50.259Z,18.1
2018-04-24T00:04:39.775Z,18.1
2018-04-24T00:05:29.848Z,18.1
2018-04-24T00:06:20.237Z,18.1
2018-04-24T00:07:10.529Z,18.1
2018-04-24T00:08:00.296Z,18.1
2018-04-24T00:08:50.396Z,18.1
2018-04-24T00:09:40.729Z,18.1
2018-04-24T00:10:29.976Z,18.1
2018-04-24T00:11:20.577Z,18.1
2018-04-24T00:12:10.687Z,18.1
2018-04-24T00:12:59.857Z,18.1
2018-04-24T00:13:50.769Z,18.1
2018-04-24T00:14:40.552Z,18.1
2018-04-24T00:15:30.924Z,18.1
2018-04-24T00:16:20.381Z,18.1
2018-04-24T00:17:11.004Z,18.1
2018-04-24T00:18:00.847Z,18.1
2018-04-24T00:18:50.868Z,18.1
2018-04-24T00:19:41.200Z,18.1
2018-04-24T00:20:31.264Z,18.1
2018-04-24T00:21:21.325Z,18.1
2018-04-24T00:22:11.136Z,18.1
2018-04-24T00:23:01.205Z,18.1
2018-04-24T00:23:51.545Z,18.1
2018-04-24T00:24:40.450Z,18.1
2018-04-24T00:25:31.405Z,18.1
2018-04-24T00:26:21.166Z,18.1
2018-04-24T00:27:11.215Z,18.1
2018-04-24T00:28:01.617Z,18.1
2018-04-24T00:28:52.015Z,18.1
2018-04-24T00:29:41.714Z,18.1
2018-04-24T00:30:32.053Z,18.1
2018-04-24T00:31:22.375Z,18.1
2018-04-24T00:32:11.665Z,18.1
2018-04-24T00:33:01.984Z,18.1
2018-04-24T00:33:52.064Z,18.1
2018-04-24T00:34:42.359Z,18.1
2018-04-24T00:35:32.727Z,18.1
2018-04-24T00:36:21.071Z,18.1
2018-04-24T00:37:12.592Z,18.1
2018-04-24T00:38:02.383Z,18.1
2018-04-24T00:38:52.125Z,18.1
2018-04-24T00:39:42.781Z,18.1
2018-04-24T00:40:33.088Z,18.1
2018-04-24T00:41:22.285Z,18.1
2018-04-24T00:42:12.947Z,18.1
2018-04-24T00:43:03.020Z,18.1
2018-04-24T00:43:52.225Z,18.1
2018-04-24T00:44:43.204Z,18.1
2018-04-24T00:45:33.450Z,18.1
2018-04-24T00:46:22.397Z,18.1
2018-04-24T00:47:13.352Z,18.1
2018-04-24T00:48:03.667Z,18.1
2018-04-24T00:48:53.542Z,18.1
2018-04-24T00:49:43.502Z,18.1
2018-04-24T00:50:32.748Z,18.1
2018-04-24T00:51:23.964Z,18.1
2018-04-24T00:52:13.964Z,18.1
2018-04-24T00:53:03.457Z,18.1
2018-04-24T00:53:53.555Z,18.1
2018-04-24T00:54:42.781Z,18.1
2018-04-24T00:55:33.388Z,18.1
2018-04-24T00:56:24.019Z,18.1
2018-04-24T00:57:13.797Z,18.1
2018-04-24T00:58:03.609Z,18.1
2018-04-24T00:58:54.251Z,18.1
2018-04-24T00:59:44.011Z,18.1
2018-04-24T01:00:34.413Z,18.1
2018-04-24T01:01:24.563Z,18.1
2018-04-24T01:02:14.204Z,18.1
2018-04-24T01:03:03.968Z,18.1
2018-04-24T01:03:54.295Z,18.1
2018-04-24T01:04:44.433Z,18.1
2018-04-24T01:05:34.755Z,18.1
2018-04-24T01:06:24.567Z,18.1
2018-04-24T01:07:14.545Z,18.1
2018-04-24T01:08:04.992Z,18.1
2018-04-24T01:08:54.430Z,18.1
2018-04-24T01:09:44.772Z,18
2018-04-24T01:10:35.118Z,18.1
2018-04-24T01:11:25.150Z,18.1
2018-04-24T01:12:14.939Z,18
2018-04-24T01:13:05.094Z,18
2018-04-24T01:13:55.066Z,18
2018-04-24T01:14:44.914Z,18.1
2018-04-24T01:15:34.679Z,18.1
2018-04-24T01:16:25.288Z,18.1
2018-04-24T01:17:15.433Z,18
2018-04-24T01:18:05.941Z,18.1
2018-04-24T01:18:55.695Z,18
2018-04-24T01:19:45.806Z,18.1
2018-04-24T01:20:35.040Z,18
2018-04-24T01:21:25.444Z,18
2018-04-24T01:22:16.293Z,18
2018-04-24T01:23:05.517Z,18
2018-04-24T01:23:55.580Z,18
2018-04-24T01:24:45.351Z,18
2018-04-24T01:25:36.064Z,18
2018-04-24T01:26:25.748Z,18
2018-04-24T01:27:16.153Z,18
2018-04-24T01:28:06.693Z,18
2018-04-24T01:28:56.490Z,18
2018-04-24T01:29:45.700Z,18
2018-04-24T01:30:36.603Z,18
2018-04-24T01:31:25.705Z,18
2018-04-24T01:32:15.993Z,18
2018-04-24T01:33:05.741Z,18
2018-04-24T01:33:55.562Z,18
2018-04-24T01:34:46.194Z,18
2018-04-24T01:35:36.268Z,18
2018-04-24T01:36:25.736Z,18
2018-04-24T01:37:16.948Z,18
2018-04-24T01:38:07.019Z,18
2018-04-24T01:38:55.669Z,18
2018-04-24T01:39:47.158Z,17.9
2018-04-24T01:40:37.381Z,18
2018-04-24T01:41:26.889Z,18
2018-04-24T01:42:17.777Z,18
2018-04-24T01:43:07.104Z,18
2018-04-24T01:43:56.792Z,17.9
2018-04-24T01:44:47.940Z,18
2018-04-24T01:45:37.782Z,17.9
2018-04-24T01:46:27.587Z,17.9
2018-04-24T01:47:17.637Z,17.9
2018-04-24T01:48:08.342Z,17.9
2018-04-24T01:48:58.018Z,17.9
2018-04-24T01:49:47.352Z,17.9
2018-04-24T01:50:38.204Z,17.9
2018-04-24T01:51:27.936Z,17.9
2018-04-24T01:52:17.521Z,17.9
2018-04-24T01:53:08.397Z,17.9
2018-04-24T01:53:58.502Z,17.9
2018-04-24T01:54:47.952Z,17.9
2018-04-24T01:55:37.985Z,17.9
2018-04-24T01:56:28.354Z,17.9
2018-04-24T01:57:18.681Z,17.9
2018-04-24T01:58:08.486Z,17.9
2018-04-24T01:58:58.499Z,17.9
2018-04-24T01:59:48.654Z,17.9
2018-04-24T02:00:38.796Z,17.9
2018-04-24T02:01:29.003Z,17.9
2018-04-24T02:02:18.805Z,17.9
2018-04-24T02:03:09.144Z,17.9
2018-04-24T02:03:58.993Z,17.9
2018-04-24T02:04:49.211Z,17.9
2018-04-24T02:05:39.302Z,17.9
2018-04-24T02:06:29.659Z,17.9
2018-04-24T02:07:19.387Z,17.9
2018-04-24T02:08:09.456Z,17.9
2018-04-24T02:08:59.815Z,17.9
2018-04-24T02:09:49.647Z,17.9
2018-04-24T02:10:39.107Z,17.9
2018-04-24T02:11:30.010Z,17.9
2018-04-24T02:12:19.564Z,17.9
2018-04-24T02:13:10.129Z,17.9
2018-04-24T02:13:59.904Z,17.9
2018-04-24T02:14:49.967Z,17.9
2018-04-24T02:15:39.764Z,17.9
2018-04-24T02:16:29.892Z,17.9
2018-04-24T02:17:20.447Z,17.9
2018-04-24T02:18:09.672Z,17.9
2018-04-24T02:19:00.601Z,17.9
2018-04-24T02:19:50.124Z,17.9
2018-04-24T02:20:40.159Z,17.9
2018-04-24T02:21:30.512Z,17.9
2018-04-24T02:22:19.738Z,17.9
2018-04-24T02:23:10.134Z,17.9
2018-04-24T02:24:00.411Z,17.9
2018-04-24T02:24:50.489Z,17.9
2018-04-24T02:25:41.093Z,17.9
2018-04-24T02:26:30.653Z,17.8
2018-04-24T02:27:19.857Z,17.9
2018-04-24T02:28:10.178Z,17.9
2018-04-24T02:29:01.181Z,17.8
2018-04-24T02:29:50.871Z,17.9
2018-04-24T02:30:41.276Z,17.8
2018-04-24T02:31:30.750Z,17.8
2018-04-24T02:32:21.685Z,17.9
2018-04-24T02:33:11.440Z,17.9
2018-04-24T02:34:01.494Z,17.8
2018-04-24T02:34:50.756Z,17.8
2018-04-24T02:35:41.688Z,17.8
2018-04-24T02:36:31.650Z,17.8
2018-04-24T02:37:20.708Z,17.8
2018-04-24T02:38:11.870Z,17.8
2018-04-24T02:39:01.283Z,17.8
2018-04-24T02:39:51.913Z,17.8
2018-04-24T02:40:42.272Z,17.8
2018-04-24T02:41:31.468Z,17.8
2018-04-24T02:42:21.306Z,17.8
2018-04-24T02:43:12.436Z,17.8
2018-04-24T02:44:02.516Z,17.8
2018-04-24T02:44:52.286Z,17.8
2018-04-24T02:45:42.472Z,17.8
2018-04-24T02:46:32.727Z,17.8
2018-04-24T02:47:22.717Z,17.8
2018-04-24T02:48:12.132Z,17.8
2018-04-24T02:49:02.162Z,17.8
2018-04-24T02:49:52.164Z,17.8
2018-04-24T02:50:41.972Z,17.8
2018-04-24T02:51:32.702Z,17.8
2018-04-24T02:52:22.383Z,17.8
2018-04-24T02:53:12.773Z,17.8
2018-04-24T02:54:03.269Z,17.8
2018-04-24T02:54:53.357Z,17.8
2018-04-24T02:55:43.208Z,17.8
2018-04-24T02:56:33.460Z,17.8
2018-04-24T02:57:23.332Z,17.8
2018-04-24T02:58:13.364Z,17.8
2018-04-24T02:59:03.372Z,17.8
2018-04-24T02:59:53.726Z,17.8
2018-04-24T03:00:43.593Z,17.8
2018-04-24T03:01:33.019Z,17.8
2018-04-24T03:02:23.384Z,17.7
2018-04-24T03:03:13.719Z,17.8
2018-04-24T03:04:04.090Z,17.8
2018-04-24T03:04:53.580Z,17.7
2018-04-24T03:05:43.315Z,17.7
2018-04-24T03:06:33.686Z,17.7
2018-04-24T03:07:24.028Z,17.7
2018-04-24T03:08:13.806Z,17.8
2018-04-24T03:09:04.204Z,17.7
2018-04-24T03:09:54.203Z,17.7
2018-04-24T03:10:43.994Z,17.7
2018-04-24T03:11:33.779Z,17.7
2018-04-24T03:12:24.654Z,17.7
2018-04-24T03:13:14.470Z,17.7
2018-04-24T03:14:03.968Z,17.7
2018-04-24T03:14:53.972Z,17.7
2018-04-24T03:15:44.924Z,17.7
2018-04-24T03:16:34.424Z,17.7
2018-04-24T03:17:25.018Z,17.7
2018-04-24T03:18:14.265Z,17.7
2018-04-24T03:19:04.962Z,17.7
2018-04-24T03:19:54.499Z,17.6
2018-04-24T03:20:44.330Z,17.6
2018-04-24T03:21:34.602Z,17.6
2018-04-24T03:22:24.709Z,17.6
2018-04-24T03:23:15.529Z,17.6
2018-04-24T03:24:04.737Z,17.6
2018-04-24T03:24:54.574Z,17.6
2018-04-24T03:25:45.512Z,17.6
2018-04-24T03:26:35.194Z,17.6
2018-04-24T03:27:24.988Z,17.6
2018-04-24T03:28:15.672Z,17.6
2018-04-24T03:29:05.672Z,17.6
2018-04-24T03:29:55.756Z,17.6
2018-04-24T03:30:45.573Z,17.6
2018-04-24T03:31:35.320Z,17.6
2018-04-24T03:32:26.176Z,17.6
2018-04-24T03:33:16.030Z,17.6
2018-04-24T03:34:06.035Z,17.6
2018-04-24T03:34:55.283Z,17.6
2018-04-24T03:35:44.830Z,17.6
2018-04-24T03:36:36.240Z,17.6
2018-04-24T03:37:26.069Z,17.6
2018-04-24T03:38:15.792Z,17.6
2018-04-24T03:39:06.146Z,17.6
2018-04-24T03:39:56.489Z,17.6
2018-04-24T03:40:46.656Z,17.6
2018-04-24T03:41:36.068Z,17.6
2018-04-24T03:42:26.372Z,17.6
2018-04-24T03:43:16.472Z,17.6
2018-04-24T03:44:06.839Z,17.6
2018-04-24T03:44:56.838Z,17.6
2018-04-24T03:45:46.888Z,17.6
2018-04-24T03:46:36.724Z,17.6
2018-04-24T03:47:26.864Z,17.6
2018-04-24T03:48:17.082Z,17.6
2018-04-24T03:49:06.596Z,17.6
2018-04-24T03:49:57.206Z,17.6
2018-04-24T03:50:46.720Z,17.6
2018-04-24T03:51:37.486Z,17.6
2018-04-24T03:52:27.688Z,17.6
2018-04-24T03:53:17.483Z,17.5
2018-04-24T03:54:07.536Z,17.5
2018-04-24T03:54:57.346Z,17.6
2018-04-24T03:55:47.689Z,17.5
2018-04-24T03:56:38.036Z,17.5
2018-04-24T03:57:28.390Z,17.5
2018-04-24T03:58:17.868Z,17.5
2018-04-24T03:59:08.238Z,17.5
2018-04-24T03:59:57.825Z,17.5
2018-04-24T04:00:48.113Z,17.5
2018-04-24T04:01:37.903Z,17.5
2018-04-24T04:02:27.982Z,17.5
2018-04-24T04:03:18.331Z,17.5
2018-04-24T04:04:07.119Z,17.5
2018-04-24T04:04:57.886Z,17.4
2018-04-24T04:05:48.280Z,17.5
2018-04-24T04:06:37.897Z,17.5
2018-04-24T04:07:27.250Z,17.5
2018-04-24T04:08:17.781Z,17.4
2018-04-24T04:09:08.739Z,17.4
2018-04-24T04:09:58.782Z,17.5
2018-04-24T04:10:48.616Z,17.4
2018-04-24T04:11:38.948Z,17.4
2018-04-24T04:12:28.973Z,17.4
2018-04-24T04:13:17.758Z,17.4
2018-04-24T04:14:09.411Z,17.4
2018-04-24T04:14:59.475Z,17.4
2018-04-24T04:15:48.995Z,17.4
2018-04-24T04:16:39.425Z,17.4
2018-04-24T04:17:28.827Z,17.4
2018-04-24T04:18:18.675Z,17.4
2018-04-24T04:19:09.827Z,17.4
2018-04-24T04:19:59.256Z,17.4
2018-04-24T04:20:49.107Z,17.4
2018-04-24T04:21:39.381Z,17.4
2018-04-24T04:22:29.553Z,17.4
2018-04-24T04:23:20.061Z,17.4
2018-04-24T04:24:09.129Z,17.4
2018-04-24T04:24:59.921Z,17.4
2018-04-24T04:25:48.984Z,17.4
2018-04-24T04:26:39.309Z,17.4
2018-04-24T04:27:29.330Z,17.4
2018-04-24T04:28:19.433Z,17.4
2018-04-24T04:29:09.477Z,17.4
2018-04-24T04:30:00.021Z,17.4
2018-04-24T04:30:49.338Z,17.4
2018-04-24T04:31:39.945Z,17.4
2018-04-24T04:32:30.388Z,17.4
2018-04-24T04:33:20.070Z,17.4
2018-04-24T04:34:09.916Z,17.4
2018-04-24T04:35:00.185Z,17.4
2018-04-24T04:35:50.630Z,17.4
2018-04-24T04:36:39.770Z,17.4
2018-04-24T04:37:30.398Z,17.4
2018-04-24T04:38:20.510Z,17.4
2018-04-24T04:39:10.332Z,17.4
2018-04-24T04:40:00.817Z,17.4
2018-04-24T04:40:50.352Z,17.4
2018-04-24T04:41:40.675Z,17.4
2018-04-24T04:42:30.203Z,17.4
2018-04-24T04:43:20.287Z,17.4
2018-04-24T04:44:10.964Z,17.4
2018-04-24T04:45:00.714Z,17.4
2018-04-24T04:45:50.747Z,17.4
2018-04-24T04:46:41.409Z,17.3
2018-04-24T04:47:29.746Z,17.4
2018-04-24T04:48:20.945Z,17.4
2018-04-24T04:49:11.083Z,17.4
2018-04-24T04:50:00.773Z,17.4
2018-04-24T04:50:51.401Z,17.4
2018-04-24T04:51:41.449Z,17.4
2018-04-24T04:52:30.953Z,17.4
2018-04-24T04:53:21.894Z,17.4
2018-04-24T04:54:11.896Z,17.4
2018-04-24T04:55:01.736Z,17.4
2018-04-24T04:55:51.761Z,17.4
2018-04-24T04:56:42.076Z,17.4
2018-04-24T04:57:31.039Z,17.4
2018-04-24T04:58:22.204Z,17.3
2018-04-24T04:59:12.313Z,17.4
2018-04-24T05:00:02.080Z,17.3
2018-04-24T05:00:51.868Z,17.3
2018-04-24T05:01:42.212Z,17.4
2018-04-24T05:02:32.003Z,17.3
2018-04-24T05:03:22.109Z,17.3
2018-04-24T05:04:12.676Z,17.3
2018-04-24T05:05:01.949Z,17.4
2018-04-24T05:05:52.506Z,17.3
2018-04-24T05:06:42.628Z,17.3
2018-04-24T05:07:32.928Z,17.3
2018-04-24T05:08:22.174Z,17.3
2018-04-24T05:09:12.795Z,17.3
2018-04-24T05:10:02.812Z,17.4
2018-04-24T05:10:52.903Z,17.3
2018-04-24T05:11:42.672Z,17.3
2018-04-24T05:12:33.328Z,17.3
2018-04-24T05:13:21.998Z,17.3
2018-04-24T05:14:13.143Z,17.3
2018-04-24T05:15:02.925Z,17.3
2018-04-24T05:15:51.881Z,17.3
2018-04-24T05:16:42.495Z,17.3
2018-04-24T05:17:33.417Z,17.3
2018-04-24T05:18:22.593Z,17.3
2018-04-24T05:19:13.563Z,17.3
2018-04-24T05:20:03.745Z,17.3
2018-04-24T05:20:53.119Z,17.3
2018-04-24T05:21:43.791Z,17.3
2018-04-24T05:22:33.568Z,17.3
2018-04-24T05:23:24.020Z,17.3
2018-04-24T05:24:13.671Z,17.3
2018-04-24T05:25:04.265Z,17.3
2018-04-24T05:25:53.565Z,17.3
2018-04-24T05:26:44.641Z,17.3
2018-04-24T05:27:33.923Z,17.3
2018-04-24T05:28:23.699Z,17.3
2018-04-24T05:29:13.773Z,17.3
2018-04-24T05:30:04.247Z,17.3
2018-04-24T05:30:54.616Z,17.3
2018-04-24T05:31:44.577Z,17.3
2018-04-24T05:32:34.544Z,17.3
2018-04-24T05:33:24.644Z,17.3
2018-04-24T05:34:14.147Z,17.3
2018-04-24T05:35:04.446Z,17.3
2018-04-24T05:35:55.265Z,17.3
2018-04-24T05:36:44.018Z,17.3
2018-04-24T05:37:34.375Z,17.3
2018-04-24T05:38:25.034Z,17.3
2018-04-24T05:39:14.834Z,17.3
2018-04-24T05:40:04.903Z,17.3
2018-04-24T05:40:55.186Z,17.3
2018-04-24T05:41:45.540Z,17.3
2018-04-24T05:42:35.290Z,17.3
2018-04-24T05:43:25.330Z,17.3
2018-04-24T05:44:15.763Z,17.3
2018-04-24T05:45:05.475Z,17.3
2018-04-24T05:45:55.196Z,17.3
2018-04-24T05:46:45.966Z,17.3
2018-04-24T05:47:36.127Z,17.3
2018-04-24T05:48:25.468Z,17.3
2018-04-24T05:49:16.126Z,17.3
2018-04-24T05:50:06.153Z,17.3
2018-04-24T05:50:55.939Z,17.3
2018-04-24T05:51:45.164Z,17.3
2018-04-24T05:52:35.798Z,17.3
2018-04-24T05:53:26.143Z,17.3
2018-04-24T05:54:16.329Z,17.3
2018-04-24T05:55:05.812Z,17.3
2018-04-24T05:55:56.550Z,17.3
2018-04-24T05:56:45.731Z,17.3
2018-04-24T05:57:35.680Z,17.3
2018-04-24T05:58:26.137Z,17.3
2018-04-24T05:59:16.783Z,17.3
2018-04-24T06:00:06.656Z,17.3
2018-04-24T06:00:57.030Z,17.3
2018-04-24T06:01:46.999Z,17.3
2018-04-24T06:02:37.132Z,17.3
2018-04-24T06:03:26.342Z,17.3
2018-04-24T06:04:16.734Z,17.3
2018-04-24T06:05:06.772Z,17.3
2018-04-24T06:05:57.578Z,17.3
2018-04-24T06:06:47.752Z,17.3
2018-04-24T06:07:37.754Z,17.3
2018-04-24T06:08:28.568Z,17.3
2018-04-24T06:09:17.536Z,17.3
2018-04-24T06:10:08.241Z,17.3
2018-04-24T06:10:57.115Z,17.3
2018-04-24T06:11:48.087Z,17.3
2018-04-24T06:12:38.423Z,17.3
2018-04-24T06:13:28.450Z,17.3
2018-04-24T06:14:17.136Z,17.3
2018-04-24T06:15:09.064Z,17.3
2018-04-24T06:15:57.817Z,17.3
2018-04-24T06:16:47.632Z,17.3
2018-04-24T06:17:37.125Z,17.3
2018-04-24T06:18:27.761Z,17.3
2018-04-24T06:19:17.564Z,17.3
2018-04-24T06:20:08.269Z,17.3
2018-04-24T06:20:57.730Z,17.3
2018-04-24T06:21:48.635Z,17.3
2018-04-24T06:22:38.676Z,17.3
2018-04-24T06:23:28.455Z,17.3
2018-04-24T06:24:18.266Z,17.3
2018-04-24T06:25:08.610Z,17.3
2018-04-24T06:25:58.317Z,17.3
2018-04-24T06:26:48.156Z,17.3
2018-04-24T06:27:38.482Z,17.3
2018-04-24T06:28:30.547Z,17.3
2018-04-24T06:29:19.174Z,17.3
2018-04-24T06:30:09.022Z,17.3
2018-04-24T06:30:58.837Z,17.3
2018-04-24T06:31:48.507Z,17.3
2018-04-24T06:32:39.149Z,17.3
2018-04-24T06:33:28.912Z,17.3
2018-04-24T06:34:18.684Z,17.3
2018-04-24T06:35:09.573Z,17.3
2018-04-24T06:35:58.887Z,17.3
2018-04-24T06:36:49.254Z,17.3
2018-04-24T06:37:41.964Z,17.3
2018-04-24T06:38:31.924Z,17.3
2018-04-24T06:39:21.960Z,17.3
2018-04-24T06:40:10.130Z,17.3
2018-04-24T06:41:01.423Z,17.3
2018-04-24T06:41:51.158Z,17.3
2018-04-24T06:42:42.322Z,17.3
2018-04-24T06:43:32.275Z,17.3
2018-04-24T06:44:21.666Z,17.3
2018-04-24T06:45:12.167Z,17.3
2018-04-24T06:46:02.523Z,17.3
2018-04-24T06:46:52.650Z,17.3
2018-04-24T06:47:42.346Z,17.3
2018-04-24T06:48:32.026Z,17.3
2018-04-24T06:49:22.218Z,17.3
2018-04-24T06:50:12.336Z,17.3
2018-04-24T06:51:02.891Z,17.3
2018-04-24T06:51:52.145Z,17.3
2018-04-24T06:52:42.811Z,17.3
2018-04-24T06:53:32.734Z,17.3
2018-04-24T06:54:22.621Z,17.3
2018-04-24T06:55:12.774Z,17.3
2018-04-24T06:56:02.333Z,17.3
2018-04-24T06:56:52.515Z,17.3
2018-04-24T06:57:42.999Z,17.3
2018-04-24T06:58:32.948Z,17.3
2018-04-24T06:59:22.766Z,17.3
2018-04-24T07:00:13.184Z,17.3
2018-04-24T07:01:03.543Z,17.3
2018-04-24T07:01:53.226Z,17.3
2018-04-24T07:02:43.516Z,17.3
2018-04-24T07:03:33.659Z,17.3
2018-04-24T07:04:23.951Z,17.3
2018-04-24T07:05:13.104Z,17.3
2018-04-24T07:06:04.145Z,17.3
2018-04-24T07:06:53.643Z,17.3
2018-04-24T07:07:43.658Z,17.3
2018-04-24T07:08:33.420Z,17.3
2018-04-24T07:09:24.597Z,17.3
2018-04-24T07:10:14.124Z,17.3
2018-04-24T07:11:03.644Z,17.3
2018-04-24T07:11:54.321Z,17.3
2018-04-24T07:12:44.085Z,17.3
2018-04-24T07:13:34.657Z,17.3
2018-04-24T07:14:24.451Z,17.3
2018-04-24T07:15:15.027Z,17.3
2018-04-24T07:16:04.258Z,17.3
2018-04-24T07:16:54.824Z,17.3
2018-04-24T07:17:44.947Z,17.3
2018-04-24T07:18:34.782Z,17.3
2018-04-24T07:19:24.506Z,17.3
2018-04-24T07:20:15.212Z,17.3
2018-04-24T07:21:04.970Z,17.3
2018-04-24T07:21:54.805Z,17.3
2018-04-24T07:22:45.719Z,17.3
2018-04-24T07:23:34.867Z,17.3
2018-04-24T07:24:25.249Z,17.4
2018-04-24T07:25:14.530Z,17.3
2018-04-24T07:26:05.717Z,17.3
2018-04-24T07:26:55.490Z,17.3
2018-04-24T07:27:44.470Z,17.3
2018-04-24T07:28:35.555Z,17.4
2018-04-24T07:29:25.274Z,17.4
2018-04-24T07:30:16.245Z,17.3
2018-04-24T07:31:05.442Z,17.3
2018-04-24T07:31:56.129Z,17.4
2018-04-24T07:32:46.109Z,17.4
2018-04-24T07:33:34.772Z,17.4
2018-04-24T07:34:26.638Z,17.4
2018-04-24T07:35:16.046Z,17.3
2018-04-24T07:36:06.396Z,17.4
2018-04-24T07:36:55.913Z,17.4
2018-04-24T07:37:46.838Z,17.4
2018-04-24T07:38:36.998Z,17.4
2018-04-24T07:39:26.694Z,17.4
2018-04-24T07:40:16.696Z,17.4
2018-04-24T07:41:07.608Z,17.4
2018-04-24T07:41:56.299Z,17.4
2018-04-24T07:42:46.374Z,17.4
2018-04-24T07:43:36.399Z,17.4
2018-04-24T07:44:26.476Z,17.4
2018-04-24T07:45:16.226Z,17.4
2018-04-24T07:46:07.201Z,17.4
2018-04-24T07:46:58.017Z,17.4
2018-04-24T07:47:47.030Z,17.4
2018-04-24T07:48:35.569Z,17.4
2018-04-24T07:49:27.650Z,17.4
2018-04-24T07:50:17.237Z,17.4
2018-04-24T07:51:06.774Z,17.4
2018-04-24T07:51:57.625Z,17.4
2018-04-24T07:52:47.128Z,17.4
2018-04-24T07:53:38.181Z,17.4
2018-04-24T07:54:27.008Z,17.4
2018-04-24T07:55:17.380Z,17.4
2018-04-24T07:56:06.914Z,17.4
2018-04-24T07:56:57.194Z,17.4
2018-04-24T07:57:47.575Z,17.4
2018-04-24T07:58:37.965Z,17.4
2018-04-24T07:59:28.239Z,17.4
2018-04-24T08:00:17.735Z,17.4
2018-04-24T08:01:07.796Z,17.4
2018-04-24T08:01:58.442Z,17.4
2018-04-24T08:02:48.000Z,17.4
2018-04-24T08:03:38.125Z,17.4
2018-04-24T08:04:28.060Z,17.4
2018-04-24T08:05:17.295Z,17.4
2018-04-24T08:06:08.467Z,17.4
2018-04-24T08:06:57.688Z,17.4
2018-04-24T08:07:48.707Z,17.4
2018-04-24T08:08:38.395Z,17.4
2018-04-24T08:09:29.320Z,17.4
2018-04-24T08:10:18.487Z,17.4
2018-04-24T08:11:07.545Z,17.4
2018-04-24T08:11:58.160Z,17.4
2018-04-24T08:12:48.742Z,17.4
2018-04-24T08:13:38.768Z,17.4
2018-04-24T08:14:29.707Z,17.4
2018-04-24T08:15:18.632Z,17.4
2018-04-24T08:16:08.414Z,17.4
2018-04-24T08:16:58.995Z,17.4
2018-04-24T08:17:49.109Z,17.4
2018-04-24T08:18:39.730Z,17.4
2018-04-24T08:19:29.474Z,17.4
2018-04-24T08:20:20.213Z,17.4
2018-04-24T08:21:09.956Z,17.4
2018-04-24T08:22:00.037Z,17.4
2018-04-24T08:22:49.407Z,17.4
2018-04-24T08:23:40.077Z,17.4
2018-04-24T08:24:29.639Z,17.4
2018-04-24T08:25:20.275Z,17.4
2018-04-24T08:26:09.984Z,17.4
2018-04-24T08:27:00.376Z,17.4
2018-04-24T08:27:50.465Z,17.4
2018-04-24T08:28:40.000Z,17.4
2018-04-24T08:29:30.550Z,17.4
2018-04-24T08:30:20.348Z,17.4
2018-04-24T08:31:10.752Z,17.4
2018-04-24T08:32:00.170Z,17.4
2018-04-24T08:32:50.825Z,17.4
2018-04-24T08:33:41.462Z,17.4
2018-04-24T08:34:31.008Z,17.4
2018-04-24T08:35:21.034Z,17.4
2018-04-24T08:36:11.166Z,17.4
2018-04-24T08:37:01.021Z,17.4
2018-04-24T08:37:51.022Z,17.4
2018-04-24T08:38:39.891Z,17.4
2018-04-24T08:39:31.032Z,17.5
2018-04-24T08:40:21.128Z,17.4
2018-04-24T08:41:11.800Z,17.4
2018-04-24T08:42:01.738Z,17.4
2018-04-24T08:42:51.595Z,17.4
2018-04-24T08:43:41.754Z,17.5
2018-04-24T08:44:30.986Z,17.4
2018-04-24T08:45:21.823Z,17.4
2018-04-24T08:46:11.634Z,17.5
2018-04-24T08:47:02.184Z,17.5
2018-04-24T08:47:52.744Z,17.5
2018-04-24T08:48:41.340Z,17.5
2018-04-24T08:49:32.494Z,17.4
2018-04-24T08:50:21.354Z,17.5
2018-04-24T08:51:11.983Z,17.5
2018-04-24T08:52:01.760Z,17.5
2018-04-24T08:52:51.625Z,17.5
2018-04-24T08:53:42.131Z,17.5
2018-04-24T08:54:32.257Z,17.5
2018-04-24T08:55:22.674Z,17.5
2018-04-24T08:56:11.845Z,17.5
2018-04-24T08:57:03.024Z,17.5
2018-04-24T08:57:51.662Z,17.5
2018-04-24T08:58:42.566Z,17.5
2018-04-24T08:59:32.457Z,17.5
2018-04-24T09:00:22.821Z,17.5
2018-04-24T09:01:12.755Z,17.5
2018-04-24T09:02:03.882Z,17.5
2018-04-24T09:02:52.982Z,17.5
2018-04-24T09:03:42.468Z,17.5
2018-04-24T09:04:33.305Z,17.5
2018-04-24T09:05:23.352Z,17.5
2018-04-24T09:06:13.223Z,17.5
2018-04-24T09:07:02.789Z,17.5
2018-04-24T09:07:53.580Z,17.5
2018-04-24T09:08:44.405Z,17.5
2018-04-24T09:09:32.820Z,17.5
2018-04-24T09:10:24.031Z,17.5
2018-04-24T09:11:13.643Z,17.5
2018-04-24T09:12:03.405Z,17.6
2018-04-24T09:12:53.746Z,17.6
2018-04-24T09:13:43.479Z,17.5
2018-04-24T09:14:33.873Z,17.6
2018-04-24T09:15:23.163Z,17.5
2018-04-24T09:16:14.032Z,17.6
2018-04-24T09:17:03.809Z,17.6
2018-04-24T09:17:54.053Z,17.6
2018-04-24T09:18:43.879Z,17.6
2018-04-24T09:19:33.901Z,17.6
2018-04-24T09:20:23.719Z,17.6
2018-04-24T09:21:13.503Z,17.6
2018-04-24T09:22:04.152Z,17.6
2018-04-24T09:22:54.192Z,17.6
2018-04-24T09:23:44.317Z,17.6
2018-04-24T09:24:33.718Z,17.6
2018-04-24T09:25:24.187Z,17.6
2018-04-24T09:26:15.049Z,17.6
2018-04-24T09:27:06.590Z,17.6
2018-04-24T09:27:54.881Z,17.6
2018-04-24T09:28:44.800Z,17.6
2018-04-24T09:29:34.600Z,17.6
2018-04-24T09:30:24.613Z,17.6
2018-04-24T09:31:14.873Z,17.6
2018-04-24T09:32:04.985Z,17.6
2018-04-24T09:32:54.196Z,17.6
2018-04-24T09:33:48.743Z,17.6
2018-04-24T09:34:35.448Z,17.6
2018-04-24T09:35:24.505Z,17.6
2018-04-24T09:36:16.077Z,17.6
2018-04-24T09:37:05.138Z,17.6
2018-04-24T09:37:55.760Z,17.6
2018-04-24T09:38:45.224Z,17.6
2018-04-24T09:39:36.360Z,17.6
2018-04-24T09:40:25.561Z,17.6
2018-04-24T09:41:14.923Z,17.6
2018-04-24T09:42:05.557Z,17.6
2018-04-24T09:42:55.368Z,17.6
2018-04-24T09:43:46.382Z,17.6
2018-04-24T09:44:35.906Z,17.6
2018-04-24T09:45:25.780Z,17.6
2018-04-24T09:46:15.947Z,17.6
2018-04-24T09:47:05.609Z,17.6
2018-04-24T09:47:56.266Z,17.6
2018-04-24T09:48:46.679Z,17.6
2018-04-24T09:49:37.928Z,17.6
2018-04-24T09:50:26.197Z,17.6
2018-04-24T09:51:15.915Z,17.6
2018-04-24T09:52:05.994Z,17.6
2018-04-24T09:52:55.810Z,17.6
2018-04-24T09:53:45.303Z,17.6
2018-04-24T09:54:35.646Z,17.6
2018-04-24T09:55:26.884Z,17.6
2018-04-24T09:56:16.849Z,17.6
2018-04-24T09:57:07.321Z,17.6
2018-04-24T09:57:57.036Z,17.6
2018-04-24T09:59:01.174Z,17.6
2018-04-24T09:59:36.939Z,17.6
2018-04-24T10:00:27.627Z,17.6
2018-04-24T10:01:18.031Z,17.6
2018-04-24T10:02:07.652Z,17.6
2018-04-24T10:02:57.416Z,17.6
2018-04-24T10:03:46.892Z,17.6
2018-04-24T10:04:38.049Z,17.6
2018-04-24T10:05:27.331Z,17.6
2018-04-24T10:06:17.122Z,17.6
2018-04-24T10:07:07.761Z,17.6
2018-04-24T10:07:59.288Z,17.6
2018-04-24T10:08:47.047Z,17.6
2018-04-24T10:09:37.666Z,17.6
2018-04-24T10:10:28.018Z,17.6
2018-04-24T10:11:17.867Z,17.6
2018-04-24T10:12:06.755Z,17.6
2018-04-24T10:12:57.435Z,17.6
2018-04-24T10:13:50.112Z,17.6
2018-04-24T10:14:39.090Z,17.6
2018-04-24T10:15:28.667Z,17.6
2018-04-24T10:16:17.877Z,17.6
2018-04-24T10:17:08.515Z,17.6
2018-04-24T10:17:58.812Z,17.6
2018-04-24T10:18:48.890Z,17.6
2018-04-24T10:19:38.919Z,17.6
2018-04-24T10:20:28.535Z,17.6
2018-04-24T10:21:18.855Z,17.6
2018-04-24T10:22:08.937Z,17.6
2018-04-24T10:22:59.489Z,17.6
2018-04-24T10:23:49.304Z,17.6
2018-04-24T10:24:39.376Z,17.6
2018-04-24T10:25:28.607Z,17.6
2018-04-24T10:26:18.699Z,17.6
2018-04-24T10:27:09.049Z,17.6
2018-04-24T10:27:59.561Z,17.6
2018-04-24T10:28:49.444Z,17.6
2018-04-24T10:29:38.622Z,17.6
2018-04-24T10:30:29.343Z,17.6
2018-04-24T10:31:19.356Z,17.6
2018-04-24T10:32:08.979Z,17.6
2018-04-24T10:32:59.842Z,17.6
2018-04-24T10:33:49.567Z,17.7
2018-04-24T10:34:38.789Z,17.7
2018-04-24T10:35:29.166Z,17.7
2018-04-24T10:36:19.944Z,17.6
2018-04-24T10:37:10.110Z,17.7
2018-04-24T10:37:59.645Z,17.7
2018-04-24T10:38:50.403Z,17.7
2018-04-24T10:39:39.513Z,17.7
2018-04-24T10:40:29.436Z,17.7
2018-04-24T10:41:20.186Z,17.6
2018-04-24T10:42:10.332Z,17.7
2018-04-24T10:42:59.207Z,17.7
2018-04-24T10:43:51.617Z,17.7
2018-04-24T10:44:40.400Z,17.7
2018-04-24T10:45:30.461Z,17.7
2018-04-24T10:46:20.882Z,17.7
2018-04-24T10:47:10.130Z,17.7
2018-04-24T10:48:01.670Z,17.7
2018-04-24T10:48:50.206Z,17.7
2018-04-24T10:49:40.825Z,17.7
2018-04-24T10:50:30.445Z,17.7
2018-04-24T10:51:20.412Z,17.7
2018-04-24T10:52:11.769Z,17.7
2018-04-24T10:53:01.682Z,17.7
2018-04-24T10:53:51.131Z,17.7
2018-04-24T10:54:41.538Z,17.7
2018-04-24T10:55:31.931Z,17.7
2018-04-24T10:56:21.615Z,17.7
2018-04-24T10:57:11.129Z,17.7
2018-04-24T10:58:01.534Z,17.7
2018-04-24T10:58:52.126Z,17.7
2018-04-24T10:59:41.576Z,17.7
2018-04-24T11:00:32.008Z,17.7
2018-04-24T11:01:22.260Z,17.7
2018-04-24T11:02:12.366Z,17.7
2018-04-24T11:03:01.864Z,17.7
2018-04-24T11:03:52.241Z,17.8
2018-04-24T11:04:41.135Z,17.7
2018-04-24T11:05:32.313Z,17.8
2018-04-24T11:06:22.680Z,17.7
2018-04-24T11:07:12.270Z,17.7
2018-04-24T11:08:03.053Z,17.8